Kona International At Keahole, HI

8:50 PM HST on March 26, 2017 (GMT -1000)
Kona International At Keahole | | Change Station
Active Advisory: High Surf Advisory Active Notice: High Surf Advisory

Elev 46 ft 19.74 °N, 156.05 °W | Updated 57 minutes ago

Overcast
Overcast
78 °F
Feels Like 78 °F
N
5
Wind Variable Wind from South

Today
High -- | Low -- °F
--% Chance of Precip.
Yesterday
High -- | Low -- °F
Precip. -- in
Pressure 30.10 in
Visibility 10.0 miles
Clouds Mostly Cloudy 6000 ft
Overcast 7000 ft
Dew Point 67 °F
Humidity 68%
Rainfall 0.00 in
Snow Depth Not available.
6:22 AM 6:36 PM
Waning Crescent, 1% visible
METAR PHKO 270553Z 19004KT 10SM BKN060 OVC070 26/19 A3010 RMK AO2 SLP193 T02560194 10289 20256 53017
Pressure 30.10 in
Visibility 10.0 miles
Clouds Mostly Cloudy 6000 ft
Overcast 7000 ft
Dew Point 67 °F
Humidity 68%
Rainfall 0.00 in
Snow Depth Not available.
6:22 AM 6:36 PM
Waning Crescent, 1% visible
METAR PHKO 270553Z 19004KT 10SM BKN060 OVC070 26/19 A3010 RMK AO2 SLP193 T02560194 10289 20256 53017

Get Your Daily Forecast Email!

Thanks for signing up!

Be on the lookout for a verification email in your inbox.

You'll start receiving severe weather alerts in your inbox..

×

10-Day Weather Forecast

Almanac

Astronomy

Mar. 26, 2017 Rise Set
Actual Time
Civil Twilight
Nautical Twilight
Astronomical Twilight
Moon
Length of Visible Light
Length of Day
Tomorrow will be .
, % of the Moon is Illuminated

Today's Extremes

State Highs State Lows

Community

WunderPhotos

Upload Photos

1,962,540 photos uploaded!

WunderBlog® & News

Nearby

Air Quality

  Air Quality AQ Index Pollutant
Not available.

Snow Depth

Station Depth Elevation

Earthquake Activity

City Distance Mag. Time & Date
Minimum magnitude displayed is 2.5.

Earthquake Activity

City Distance Mag. Time & Date
Minimum magnitude displayed is 2.5.

Coastal Water Temperatures

Place Temperature

Stations

Nearby Weather Stations

Station Location Temp. Windchill Dew Point Humidity Wind Precip. Elev Updated Type
                   

Watches & Warnings

High Surf Advisory
Issued: 3:50 PM HST Mar. 26, 2017 – National Weather Service

... High surf advisory in effect until 6 PM HST Monday...
... High surf warning is cancelled...

The National Weather Service in Honolulu has issued a high surf
advisory... which is in effect until 6 PM HST Monday. The high
surf warning has been cancelled.

* Surf... along west facing shores of The Big Island from Kona
southward... 8 to 11 feet with occasional higher sets.

* Timing... through Monday.

* Impacts... moderate... expect strong breaking waves... shore
break... and strong longshore and rip currents making swimming
difficult and dangerous.

Precautionary/preparedness actions...

Beachgoers... swimmers... and surfers should heed all advice given
by ocean safety officials and exercise caution. Boaters should
expect recreational surfers and body boarders utilizing Harbor
channels to access surfing areas.